createdAt,value
2022-08-17T00:00:42.674Z,4.20
2022-08-17T00:03:08.330Z,4.07
2022-08-17T00:05:42.334Z,4.13
2022-08-17T00:08:12.207Z,4.30
2022-08-17T00:10:40.583Z,3.83
2022-08-17T00:13:10.561Z,3.87
2022-08-17T00:15:38.862Z,3.40
2022-08-17T00:19:06.071Z,3.30
2022-08-17T00:20:55.906Z,3.87
2022-08-17T00:23:26.018Z,3.47
2022-08-17T00:25:54.781Z,4.00
2022-08-17T00:28:23.188Z,2.90
2022-08-17T00:30:52.935Z,3.43
2022-08-17T00:33:26.992Z,3.47
2022-08-17T00:35:56.204Z,3.60
2022-08-17T00:38:26.663Z,3.17
2022-08-17T00:41:01.025Z,3.07
2022-08-17T00:43:33.182Z,3.20
2022-08-17T00:46:02.480Z,3.63
2022-08-17T00:48:31.860Z,3.50
2022-08-17T00:51:04.923Z,3.87
2022-08-17T00:53:35.477Z,3.00
2022-08-17T00:56:07.095Z,3.80
2022-08-17T00:58:36.584Z,3.30
2022-08-17T01:01:06.301Z,3.33
2022-08-17T01:03:34.827Z,3.83
2022-08-17T01:06:04.510Z,3.10
2022-08-17T01:08:35.046Z,3.03
2022-08-17T01:11:05.316Z,3.33
2022-08-17T01:13:40.744Z,3.50
2022-08-17T01:16:16.105Z,3.57
2022-08-17T01:18:45.413Z,3.17
2022-08-17T01:21:19.571Z,3.37
2022-08-17T01:23:49.088Z,3.13
2022-08-17T01:26:17.718Z,3.90
2022-08-17T01:28:55.084Z,3.90
2022-08-17T01:31:26.741Z,3.40
2022-08-17T01:33:54.955Z,4.57
2022-08-17T01:36:23.267Z,4.50
2022-08-17T01:38:52.917Z,3.93
2022-08-17T01:41:23.434Z,4.47
2022-08-17T01:43:54.575Z,3.90
2022-08-17T01:46:24.871Z,3.90
2022-08-17T01:48:53.103Z,4.50
2022-08-17T01:51:21.760Z,4.40
2022-08-17T01:53:52.930Z,4.33
2022-08-17T01:56:23.938Z,4.90
2022-08-17T01:58:52.684Z,4.60
2022-08-17T02:01:22.714Z,5.10
2022-08-17T02:03:56.284Z,4.37
2022-08-17T02:06:30.595Z,4.97
2022-08-17T02:09:03.224Z,3.93
2022-08-17T02:11:32.739Z,4.50
2022-08-17T02:14:02.525Z,5.33
2022-08-17T02:16:37.070Z,5.07
2022-08-17T02:19:09.296Z,4.77
2022-08-17T02:21:37.747Z,5.57
2022-08-17T02:24:08.828Z,5.83
2022-08-17T02:26:37.124Z,5.80
2022-08-17T02:29:05.416Z,5.53
2022-08-17T02:31:33.498Z,6.07
2022-08-17T02:34:04.695Z,5.53
2022-08-17T02:36:34.694Z,5.50
2022-08-17T02:39:03.254Z,6.10
2022-08-17T02:41:33.352Z,5.20
2022-08-17T02:44:02.094Z,5.17
2022-08-17T02:46:30.551Z,4.80
2022-08-17T02:48:58.685Z,4.93
2022-08-17T02:51:27.253Z,5.60
2022-08-17T02:54:02.229Z,5.67
2022-08-17T02:56:45.186Z,6.23
2022-08-17T02:59:13.367Z,7.23
2022-08-17T03:01:41.495Z,5.27
2022-08-17T03:04:09.676Z,4.97
2022-08-17T03:06:38.049Z,5.60
2022-08-17T03:09:06.401Z,5.20
2022-08-17T03:11:34.575Z,4.70
2022-08-17T03:14:04.270Z,3.90
2022-08-17T03:16:32.955Z,4.17
2022-08-17T03:19:01.593Z,4.87
2022-08-17T03:21:29.719Z,4.37
2022-08-17T03:23:58.065Z,4.53
2022-08-17T03:26:29.715Z,5.37
2022-08-17T03:28:58.282Z,6.43
2022-08-17T03:31:27.734Z,4.97
2022-08-17T03:33:56.545Z,6.23
2022-08-17T03:36:24.793Z,5.60
2022-08-17T03:38:52.924Z,4.70
2022-08-17T03:41:22.971Z,4.50
2022-08-17T03:43:51.120Z,5.10
2022-08-17T03:46:37.047Z,4.20
2022-08-17T03:49:25.821Z,4.60
2022-08-17T03:52:11.332Z,4.10
2022-08-17T03:54:57.310Z,4.40
2022-08-17T03:57:25.897Z,4.33
2022-08-17T03:59:54.466Z,4.00
2022-08-17T04:02:24.992Z,4.03
2022-08-17T04:04:54.697Z,4.50
2022-08-17T04:07:24.567Z,3.63
2022-08-17T04:09:53.199Z,3.90
2022-08-17T04:12:23.686Z,4.40
2022-08-17T04:14:54.712Z,4.07
2022-08-17T04:17:25.096Z,4.60
2022-08-17T04:19:55.525Z,4.87
2022-08-17T04:22:32.233Z,4.27
2022-08-17T04:25:10.028Z,4.10
2022-08-17T04:27:38.250Z,3.43
2022-08-17T04:30:08.250Z,4.30
2022-08-17T04:33:05.011Z,3.97
2022-08-17T04:35:38.061Z,4.20
2022-08-17T04:38:06.558Z,3.73
2022-08-17T04:40:52.477Z,4.23
2022-08-17T04:43:23.120Z,4.10
2022-08-17T04:45:56.234Z,4.60
2022-08-17T04:48:29.647Z,4.37
2022-08-17T04:51:10.180Z,5.30
2022-08-17T04:53:39.920Z,3.90
2022-08-17T04:56:11.796Z,3.57
2022-08-17T04:58:45.612Z,4.67
2022-08-17T05:01:13.982Z,3.37
2022-08-17T05:03:42.883Z,3.57
2022-08-17T05:06:12.329Z,3.70
2022-08-17T05:08:40.456Z,4.80
2022-08-17T05:11:08.967Z,3.63
2022-08-17T05:13:37.187Z,3.63
2022-08-17T05:16:06.138Z,4.07
2022-08-17T05:18:34.334Z,3.20
2022-08-17T05:21:04.104Z,3.63
2022-08-17T05:23:41.642Z,4.03
2022-08-17T05:26:15.235Z,3.77
2022-08-17T05:28:54.159Z,3.80
2022-08-17T05:31:22.444Z,3.90
2022-08-17T05:33:50.736Z,3.37
2022-08-17T05:36:38.129Z,3.97
2022-08-17T05:39:08.550Z,4.30
2022-08-17T05:41:43.860Z,3.57
2022-08-17T05:44:12.386Z,3.30
2022-08-17T05:46:43.281Z,3.90
2022-08-17T05:49:19.054Z,3.83
2022-08-17T05:52:07.262Z,4.40
2022-08-17T05:54:50.393Z,3.70
2022-08-17T05:57:47.502Z,3.33
2022-08-17T06:00:30.368Z,3.90
2022-08-17T06:03:32.075Z,3.70
2022-08-17T06:06:09.844Z,3.63
2022-08-17T06:08:43.487Z,3.60
2022-08-17T06:11:19.986Z,3.60
2022-08-17T06:13:58.241Z,3.20
2022-08-17T06:16:34.267Z,4.23
2022-08-17T06:19:07.351Z,3.57
2022-08-17T06:21:37.941Z,4.27
2022-08-17T06:24:08.866Z,3.53
2022-08-17T06:26:43.417Z,3.50
2022-08-17T06:29:21.742Z,3.60
2022-08-17T06:31:50.176Z,3.70
2022-08-17T06:34:19.658Z,3.40
2022-08-17T06:36:53.998Z,3.03
2022-08-17T06:39:34.573Z,2.97
2022-08-17T06:43:02.526Z,2.70
2022-08-17T06:45:07.400Z,3.40
2022-08-17T06:47:38.876Z,3.03
2022-08-17T06:50:15.854Z,3.40
2022-08-17T06:52:52.525Z,3.60
2022-08-17T06:55:23.168Z,3.40
2022-08-17T06:57:54.010Z,3.00
2022-08-17T07:00:24.415Z,3.33
2022-08-17T07:02:59.776Z,2.80
2022-08-17T07:05:36.685Z,3.43
2022-08-17T07:08:12.315Z,3.10
2022-08-17T07:10:43.895Z,2.80
2022-08-17T07:13:27.536Z,2.97
2022-08-17T07:16:00.369Z,2.90
2022-08-17T07:18:30.299Z,2.47
2022-08-17T07:21:03.421Z,2.80
2022-08-17T07:23:41.417Z,2.87
2022-08-17T07:26:13.265Z,3.13
2022-08-17T07:28:44.764Z,3.53
2022-08-17T07:31:17.173Z,3.37
2022-08-17T07:34:00.662Z,2.60
2022-08-17T07:36:34.184Z,2.40
2022-08-17T07:39:03.568Z,2.73
2022-08-17T07:41:53.115Z,2.60
2022-08-17T07:44:26.524Z,2.73
2022-08-17T07:47:12.526Z,2.50
2022-08-17T07:49:43.064Z,2.70
2022-08-17T07:52:48.114Z,2.73
2022-08-17T07:55:05.157Z,2.77
2022-08-17T07:57:37.387Z,3.00
2022-08-17T08:00:31.685Z,2.73
2022-08-17T08:03:23.755Z,3.23
2022-08-17T08:05:57.658Z,2.80
2022-08-17T08:08:30.230Z,2.87
2022-08-17T08:11:02.519Z,3.10
2022-08-17T08:13:32.297Z,3.53
2022-08-17T08:16:26.489Z,3.80
2022-08-17T08:18:57.985Z,3.43
2022-08-17T08:21:34.895Z,3.47
2022-08-17T08:24:21.730Z,3.97
2022-08-17T08:26:55.583Z,3.40
2022-08-17T08:29:31.316Z,3.50
2022-08-17T08:32:09.203Z,3.40
2022-08-17T08:35:01.484Z,3.83
2022-08-17T08:37:51.013Z,3.60
2022-08-17T08:40:42.745Z,3.53
2022-08-17T08:43:18.227Z,2.87
2022-08-17T08:45:51.802Z,3.50
2022-08-17T08:48:56.877Z,3.20
2022-08-17T08:51:34.333Z,2.97
2022-08-17T08:54:09.495Z,3.67
2022-08-17T08:56:59.003Z,2.83
2022-08-17T08:59:34.486Z,3.50
2022-08-17T09:02:24.222Z,3.47
2022-08-17T09:05:18.320Z,3.43
2022-08-17T09:07:57.550Z,3.43
2022-08-17T09:10:29.493Z,3.80
2022-08-17T09:13:10.266Z,3.83
2022-08-17T09:15:42.768Z,3.70
2022-08-17T09:19:02.770Z,2.93
2022-08-17T09:21:09.824Z,3.30
2022-08-17T09:23:41.046Z,4.27
2022-08-17T09:26:15.239Z,3.50
2022-08-17T09:28:46.278Z,4.43
2022-08-17T09:31:19.188Z,3.70
2022-08-17T09:33:49.714Z,3.50
2022-08-17T09:36:26.341Z,3.93
2022-08-17T09:38:59.433Z,3.10
2022-08-17T09:41:39.209Z,3.50
2022-08-17T09:44:23.951Z,3.10
2022-08-17T09:46:55.928Z,3.07
2022-08-17T09:49:31.129Z,3.90
2022-08-17T09:52:04.872Z,3.47
2022-08-17T09:54:39.076Z,3.10
2022-08-17T09:57:31.635Z,3.20
2022-08-17T10:00:17.172Z,2.80
2022-08-17T10:03:24.256Z,2.97
2022-08-17T10:05:58.083Z,2.90
2022-08-17T10:08:35.002Z,3.00
2022-08-17T10:11:12.258Z,2.97
2022-08-17T10:13:47.225Z,3.53
2022-08-17T10:16:27.315Z,3.07
2022-08-17T10:19:04.714Z,3.00
2022-08-17T10:21:51.482Z,3.53
2022-08-17T10:25:21.174Z,3.90
2022-08-17T10:27:43.157Z,3.23
2022-08-17T10:30:14.094Z,3.10
2022-08-17T10:32:48.737Z,3.67
2022-08-17T10:35:28.402Z,2.80
2022-08-17T10:38:32.693Z,3.30
2022-08-17T10:41:08.544Z,3.10
2022-08-17T10:44:40.271Z,3.63
2022-08-17T10:46:52.916Z,3.63
2022-08-17T10:49:27.376Z,3.23
2022-08-17T10:51:56.937Z,3.00
2022-08-17T10:54:42.855Z,3.40
2022-08-17T10:57:38.899Z,3.00
2022-08-17T11:00:14.825Z,3.00
2022-08-17T11:02:53.515Z,3.10
2022-08-17T11:05:34.569Z,2.70
2022-08-17T11:08:26.645Z,3.00
2022-08-17T11:11:05.587Z,2.80
2022-08-17T11:13:41.164Z,3.17
2022-08-17T11:16:22.095Z,3.00
2022-08-17T11:19:11.914Z,3.23
2022-08-17T11:22:03.822Z,3.60
2022-08-17T11:24:35.901Z,3.73
2022-08-17T11:27:12.050Z,2.87
2022-08-17T11:29:58.111Z,3.20
2022-08-17T11:32:47.572Z,2.80
2022-08-17T11:35:40.155Z,3.60
2022-08-17T11:38:19.922Z,3.07
2022-08-17T11:41:13.253Z,3.23
2022-08-17T11:44:02.029Z,2.80
2022-08-17T11:46:57.506Z,2.47
2022-08-17T11:49:55.125Z,3.13
2022-08-17T11:52:45.980Z,2.90
2022-08-17T11:55:54.723Z,4.00
2022-08-17T11:58:39.299Z,2.70
2022-08-17T12:01:08.780Z,3.13
2022-08-17T12:03:55.643Z,3.27
2022-08-17T12:06:43.860Z,3.00
2022-08-17T12:09:16.436Z,3.10
2022-08-17T12:12:11.160Z,2.50
2022-08-17T12:15:07.994Z,2.80
2022-08-17T12:17:40.219Z,2.90
2022-08-17T12:20:15.224Z,2.93
2022-08-17T12:22:53.466Z,2.70
2022-08-17T12:25:32.950Z,3.47
2022-08-17T12:28:05.990Z,2.47
2022-08-17T12:30:35.875Z,2.73
2022-08-17T12:33:04.078Z,3.20
2022-08-17T12:35:36.318Z,2.70
2022-08-17T12:38:32.494Z,2.60
2022-08-17T12:40:58.573Z,2.60
2022-08-17T12:43:31.412Z,2.83
2022-08-17T12:46:14.807Z,2.80
2022-08-17T12:48:59.790Z,3.03
2022-08-17T12:51:30.284Z,2.67
2022-08-17T12:53:59.025Z,2.90
2022-08-17T12:56:27.444Z,2.87
2022-08-17T12:58:56.801Z,3.20
2022-08-17T13:01:26.055Z,3.73
2022-08-17T13:04:00.760Z,3.53
2022-08-17T13:06:36.802Z,2.93
2022-08-17T13:09:11.425Z,3.30
2022-08-17T13:11:48.311Z,3.47
2022-08-17T13:14:18.463Z,2.83
2022-08-17T13:16:53.475Z,2.97
2022-08-17T13:19:29.753Z,2.77
2022-08-17T13:22:12.817Z,3.30
2022-08-17T13:24:53.105Z,3.30
2022-08-17T13:27:23.584Z,3.00
2022-08-17T13:29:53.843Z,3.23
2022-08-17T13:32:24.519Z,3.00
2022-08-17T13:35:12.291Z,3.67
2022-08-17T13:37:58.683Z,3.87
2022-08-17T13:40:31.605Z,3.17
2022-08-17T13:43:00.237Z,3.27
2022-08-17T13:45:52.467Z,3.47
2022-08-17T13:48:25.179Z,3.70
2022-08-17T13:51:29.706Z,3.73
2022-08-17T13:54:08.542Z,4.00
2022-08-17T13:56:59.582Z,3.23
2022-08-17T13:59:53.704Z,3.37
2022-08-17T14:02:26.072Z,3.73
2022-08-17T14:04:56.776Z,3.97
2022-08-17T14:07:30.727Z,3.77
2022-08-17T14:10:03.057Z,3.10
2022-08-17T14:12:33.696Z,2.97
2022-08-17T14:15:02.382Z,3.90
2022-08-17T14:17:36.553Z,3.97
2022-08-17T14:20:07.477Z,2.97
2022-08-17T14:22:37.995Z,2.83
2022-08-17T14:25:10.637Z,2.93
2022-08-17T14:27:43.272Z,3.20
2022-08-17T14:30:23.938Z,3.30
2022-08-17T14:32:53.088Z,3.53
2022-08-17T14:35:23.932Z,2.60
2022-08-17T14:37:52.739Z,3.13
2022-08-17T14:40:24.666Z,2.60
2022-08-17T14:42:55.281Z,3.40
2022-08-17T14:45:30.249Z,3.70
2022-08-17T14:48:07.785Z,4.10
2022-08-17T14:50:36.676Z,3.20
2022-08-17T14:53:13.726Z,3.03
2022-08-17T14:55:45.746Z,2.97
2022-08-17T14:58:15.682Z,2.83
2022-08-17T15:00:44.425Z,2.93
2022-08-17T15:03:12.804Z,2.97
2022-08-17T15:05:41.517Z,3.50
2022-08-17T15:08:09.975Z,3.77
2022-08-17T15:10:39.134Z,2.93
2022-08-17T15:13:17.754Z,3.67
2022-08-17T15:15:46.113Z,3.83
2022-08-17T15:18:14.571Z,3.33
2022-08-17T15:20:43.471Z,3.77
2022-08-17T15:23:14.473Z,2.83
2022-08-17T15:25:43.819Z,3.20
2022-08-17T15:28:13.798Z,2.87
2022-08-17T15:30:43.180Z,3.17
2022-08-17T15:33:14.605Z,3.50
2022-08-17T15:35:44.457Z,3.67
2022-08-17T15:38:13.010Z,2.77
2022-08-17T15:40:42.687Z,3.20
2022-08-17T15:43:14.649Z,3.30
2022-08-17T15:45:42.993Z,3.20
2022-08-17T15:48:11.515Z,3.47
2022-08-17T15:50:39.579Z,3.40
2022-08-17T15:53:08.987Z,3.40
2022-08-17T15:55:38.607Z,3.13
2022-08-17T15:58:09.913Z,2.97
2022-08-17T16:00:53.345Z,2.60
2022-08-17T16:04:01.452Z,3.50
2022-08-17T16:06:17.316Z,3.07
2022-08-17T16:08:46.008Z,3.10
2022-08-17T16:11:15.327Z,3.50
2022-08-17T16:13:54.730Z,3.50
2022-08-17T16:16:26.113Z,3.10
2022-08-17T16:18:56.983Z,3.70
2022-08-17T16:21:27.521Z,3.87
2022-08-17T16:23:57.356Z,4.20
2022-08-17T16:26:25.665Z,3.70
2022-08-17T16:28:54.262Z,3.50
2022-08-17T16:31:22.695Z,3.23
2022-08-17T16:33:58.498Z,2.93
2022-08-17T16:36:40.951Z,3.40
2022-08-17T16:39:21.984Z,2.97
2022-08-17T16:41:50.339Z,3.20
2022-08-17T16:44:20.191Z,2.90
2022-08-17T16:46:50.199Z,3.30
2022-08-17T16:49:36.039Z,3.27
2022-08-17T16:52:10.137Z,3.23
2022-08-17T16:54:40.567Z,3.43
2022-08-17T16:57:08.727Z,3.10
2022-08-17T16:59:41.031Z,3.07
2022-08-17T17:02:15.182Z,3.63
2022-08-17T17:04:49.485Z,2.77
2022-08-17T17:07:46.688Z,3.60
2022-08-17T17:10:17.926Z,3.33
2022-08-17T17:13:02.473Z,3.00
2022-08-17T17:15:39.513Z,3.03
2022-08-17T17:18:13.133Z,3.23
2022-08-17T17:20:47.568Z,3.07
2022-08-17T17:23:25.644Z,4.13
2022-08-17T17:25:58.218Z,3.50
2022-08-17T17:28:31.761Z,4.00
2022-08-17T17:31:02.395Z,4.00
2022-08-17T17:33:36.274Z,3.80
2022-08-17T17:36:10.178Z,3.70
2022-08-17T17:38:43.930Z,3.43
2022-08-17T17:41:16.625Z,4.10
2022-08-17T17:43:44.896Z,4.30
2022-08-17T17:46:27.322Z,3.87
2022-08-17T17:48:57.218Z,3.97
2022-08-17T17:52:08.765Z,4.20
2022-08-17T17:54:32.391Z,4.83
2022-08-17T17:57:11.040Z,5.60
2022-08-17T17:59:45.051Z,8.00
2022-08-17T18:02:36.968Z,8.50
2022-08-17T18:05:10.594Z,9.27
2022-08-17T18:07:44.304Z,9.17
2022-08-17T18:10:30.140Z,7.00
2022-08-17T18:13:13.438Z,6.00
2022-08-17T18:15:51.466Z,5.77
2022-08-17T18:18:38.625Z,6.00
2022-08-17T18:21:15.864Z,5.23
2022-08-17T18:23:55.855Z,5.20
2022-08-17T18:26:37.703Z,4.63
2022-08-17T18:29:22.899Z,5.20
2022-08-17T18:32:15.457Z,4.90
2022-08-17T18:34:47.789Z,5.30
2022-08-17T18:37:33.515Z,5.83
2022-08-17T18:40:25.055Z,7.00
2022-08-17T18:43:00.050Z,7.07
2022-08-17T18:45:34.530Z,5.03
2022-08-17T18:48:03.095Z,5.53
2022-08-17T18:50:39.539Z,5.40
2022-08-17T18:53:26.470Z,5.10
2022-08-17T18:56:17.357Z,4.97
2022-08-17T18:58:52.054Z,4.43
2022-08-17T19:01:41.658Z,4.17
2022-08-17T19:04:16.843Z,4.30
2022-08-17T19:06:44.994Z,3.80
2022-08-17T19:09:32.844Z,4.03
2022-08-17T19:12:05.739Z,3.80
2022-08-17T19:14:34.387Z,3.43
2022-08-17T19:17:07.072Z,3.47
2022-08-17T19:19:39.357Z,3.10
2022-08-17T19:22:28.448Z,3.40
2022-08-17T19:25:09.348Z,3.53
2022-08-17T19:27:46.243Z,3.40
2022-08-17T19:30:16.380Z,3.60
2022-08-17T19:32:44.760Z,3.73
2022-08-17T19:35:17.583Z,4.10
2022-08-17T19:37:56.749Z,3.07
2022-08-17T19:40:51.796Z,3.57
2022-08-17T19:43:25.133Z,3.27
2022-08-17T19:45:59.551Z,3.20
2022-08-17T19:48:41.152Z,3.73
2022-08-17T19:51:12.226Z,3.20
2022-08-17T19:54:04.918Z,3.70
2022-08-17T19:56:40.583Z,3.73
2022-08-17T19:59:15.168Z,4.60
2022-08-17T20:01:47.065Z,3.80
2022-08-17T20:04:31.719Z,3.60
2022-08-17T20:07:04.043Z,4.13
2022-08-17T20:09:37.571Z,4.10
2022-08-17T20:12:10.525Z,3.80
2022-08-17T20:14:53.904Z,4.73
2022-08-17T20:17:25.257Z,6.23
2022-08-17T20:20:01.603Z,4.13
2022-08-17T20:22:31.533Z,4.23
2022-08-17T20:25:30.291Z,4.63
2022-08-17T20:28:06.218Z,4.87
2022-08-17T20:30:39.624Z,3.87
2022-08-17T20:33:13.246Z,4.00
2022-08-17T20:35:41.788Z,4.00
2022-08-17T20:38:11.593Z,4.20
2022-08-17T20:40:41.287Z,4.30
2022-08-17T20:43:44.203Z,3.70
2022-08-17T20:46:21.590Z,4.00
2022-08-17T20:48:51.812Z,3.83
2022-08-17T20:51:31.515Z,4.03
2022-08-17T20:54:07.609Z,3.57
2022-08-17T20:57:00.480Z,4.27
2022-08-17T21:00:07.165Z,3.90
2022-08-17T21:02:37.201Z,3.83
2022-08-17T21:05:34.396Z,4.13
2022-08-17T21:08:14.287Z,3.30
2022-08-17T21:10:43.879Z,3.40
2022-08-17T21:13:53.776Z,3.73
2022-08-17T21:16:42.434Z,4.00
2022-08-17T21:19:22.181Z,3.50
2022-08-17T21:21:59.146Z,3.70
2022-08-17T21:24:36.629Z,3.73
2022-08-17T21:27:09.837Z,4.63
2022-08-17T21:29:53.189Z,3.50
2022-08-17T21:32:29.684Z,3.83
2022-08-17T21:35:28.323Z,3.80
2022-08-17T21:38:02.480Z,4.13
2022-08-17T21:40:32.481Z,3.67
2022-08-17T21:43:05.307Z,3.70
2022-08-17T21:45:36.406Z,4.23
2022-08-17T21:48:12.727Z,4.17
2022-08-17T21:50:45.298Z,3.93
2022-08-17T21:53:18.273Z,4.10
2022-08-17T21:55:50.552Z,4.20
2022-08-17T21:58:30.422Z,4.53
2022-08-17T22:01:30.230Z,5.03
2022-08-17T22:04:03.518Z,4.70
2022-08-17T22:06:36.447Z,4.10
2022-08-17T22:09:16.292Z,4.10
2022-08-17T22:11:55.752Z,4.50
2022-08-17T22:14:27.513Z,3.90
2022-08-17T22:17:18.623Z,4.37
2022-08-17T22:19:50.203Z,3.60
2022-08-17T22:22:33.814Z,4.87
2022-08-17T22:25:03.284Z,4.83
2022-08-17T22:27:49.974Z,4.30
2022-08-17T22:30:26.064Z,5.40
2022-08-17T22:32:54.499Z,4.60
2022-08-17T22:35:37.847Z,4.80
2022-08-17T22:38:35.090Z,3.90
2022-08-17T22:41:32.168Z,4.13
2022-08-17T22:44:07.709Z,4.00
2022-08-17T22:46:40.810Z,4.20
2022-08-17T22:49:09.059Z,4.03
2022-08-17T22:51:37.588Z,3.80
2022-08-17T22:54:36.039Z,4.40
2022-08-17T22:57:23.191Z,4.80
2022-08-17T22:59:52.829Z,4.50
2022-08-17T23:02:24.452Z,4.30
2022-08-17T23:04:55.660Z,4.33
2022-08-17T23:07:23.760Z,4.57
2022-08-17T23:09:55.254Z,3.80
2022-08-17T23:12:26.567Z,4.10
2022-08-17T23:15:00.657Z,5.17
2022-08-17T23:17:35.071Z,5.90
2022-08-17T23:20:08.342Z,5.27
2022-08-17T23:22:37.414Z,4.60
2022-08-17T23:25:27.103Z,4.67
2022-08-17T23:27:55.322Z,4.37
2022-08-17T23:30:25.407Z,5.13
2022-08-17T23:32:54.307Z,5.30
2022-08-17T23:35:39.335Z,5.93
2022-08-17T23:38:10.269Z,5.37
2022-08-17T23:40:40.176Z,5.97
2022-08-17T23:43:17.525Z,4.73
2022-08-17T23:45:54.391Z,4.83
2022-08-17T23:48:35.658Z,4.17
2022-08-17T23:51:09.151Z,5.70
2022-08-17T23:53:38.227Z,5.57
2022-08-17T23:56:11.152Z,5.63
2022-08-17T23:58:43.286Z,4.80
